Latest Coastal Weather Observations for Yeppoon

IDQ60701

Issued at 4:52 pm EST Wednesday 26 February 2020 (issued every 10 minutes, with the page automatically refreshed every 10 minutes)

About coastal observations | Map of coastal stations | Coastal observations for QLD | Marine services | Other Formats
Station Details ID: 033294 Name: YEPPOON THE ESPLANADE Lat: -23.14 Lon: 150.75 Height: 5.5 m
Data from the previous 72 hours. | See also: Recent months at Yeppoon
Date/Time
EST
Wind Sea
Height
m
Swell Vis
km
Cloud Weather Temp
°C
Press
hPa
Rain since
9am
mm
Dir  Spd
kts
Gust
kts
Height
m
Period
s
Dir
26/04:30pm NE 9 11 - - - - - - - 29.6 1006.4 0.2
26/04:00pm NE 9 13 - - - - - - - 29.7 1006.7 0.2
26/03:30pm ENE 10 11 - - - - - - - 29.1 1006.9 0.2
26/03:00pm ENE 9 11 - - - - - - - 29.0 1007.3 0.2
26/02:30pm ENE 11 13 - - - - - - - 29.2 1007.4 0.2
26/02:00pm E 10 13 - - - - - - - 29.7 1007.7 0.2
26/01:30pm ESE 10 11 - - - - - - - 29.5 1008.2 0.2
26/01:00pm E 10 12 - - - - - - - 29.5 1008.7 0.2
26/12:30pm E 10 12 - - - - - - - 29.6 1009.1 0.2
26/12:00pm ESE 9 12 - - - - - - - 29.5 1009.3 0.2
26/11:30am E 9 11 - - - - - - - 29.1 1009.5 0.2
26/11:00am ESE 9 12 - - - - - - - 29.2 1009.8 0.2
26/10:30am ESE 8 11 - - - - - - - 29.1 1010.2 0.2
26/10:00am ESE 7 9 - - - - - - - 28.7 1010.4 0.2
26/09:30am SE 7 11 - - - - - - - 28.3 1010.5 0.0
26/09:00am SSE 7 11 - - - - - - - 27.7 1010.6 3.6
26/08:30am S 6 9 - - - - - - - 26.0 1010.8 3.6
26/08:00am S 6 9 - - - - - - - 25.5 1010.9 3.6
26/07:30am S 7 9 - - - - - - - 25.4 1010.6 3.6
26/07:00am S 5 7 - - - - - - - 25.2 1010.5 3.6
26/06:30am S 5 7 - - - - - - - 25.1 1010.1 3.6
26/06:00am S 6 10 - - - - - - - 25.1 1010.0 3.6
26/05:30am S 6 9 - - - - - - - 25.6 1009.8 3.6
26/05:00am S 5 7 - - - - - - - 25.9 1009.8 3.6
26/04:30am S 5 7 - - - - - - - 26.2 1009.3 3.6
26/04:00am E 9 12 - - - - - - - 27.3 1009.0 3.6
26/03:30am E 10 12 - - - - - - - 27.2 1008.8 3.6
26/03:00am E 12 14 - - - - - - - 27.6 1009.0 3.6
26/02:30am E 11 15 - - - - - - - 27.4 1009.1 3.6
26/02:00am E 11 14 - - - - - - - 27.6 1009.5 3.6
26/01:30am ESE 7 12 - - - - - - - 27.1 1009.9 3.6
26/01:00am ESE 11 16 - - - - - - - 27.4 1010.3 3.6
26/12:30am ESE 9 13 - - - - - - - 27.2 1010.4 3.6
26/12:00am E 13 19 - - - - - - - 27.4 1010.6 3.6
 
Date/Time
EST
Wind Sea
Height
m
Swell Vis
km
Cloud Weather Temp
°C
Press
hPa
Rain since
9am
mm
Dir  Spd
kts
Gust
kts
Height
m
Period
s
Dir
25/11:30pm E 13 15 - - - - - - - 27.6 1011.0 3.6
25/11:00pm E 13 16 - - - - - - - 27.8 1011.4 3.6
25/10:30pm ESE 13 16 - - - - - - - 27.9 1011.4 3.6
25/10:00pm ESE 15 17 - - - - - - - 27.8 1011.3 3.6
25/09:30pm E 14 17 - - - - - - - 27.6 1011.5 3.6
25/09:00pm ESE 13 17 - - - - - - - 27.9 1011.3 3.6
25/08:30pm E 13 16 - - - - - - - 28.0 1011.1 3.6
25/08:00pm E 11 15 - - - - - - - 27.4 1010.8 3.6
25/07:30pm E 14 17 - - - - - - - 26.9 1010.8 3.2
25/07:00pm E 13 15 - - - - - - - 27.8 1010.4 0.2
25/06:30pm ESE 12 16 - - - - - - - 27.9 1010.2 0.2
25/06:00pm ESE 12 16 - - - - - - - 28.5 1009.8 0.2
25/05:30pm ESE 11 15 - - - - - - - 28.6 1009.6 0.2
25/05:00pm ESE 10 14 - - - - - - - 28.6 1009.6 0.2
25/04:30pm ESE 9 12 - - - - - - - 28.8 1009.5 0.2
25/04:00pm ESE 10 14 - - - - - - - 28.9 1009.5 0.2
25/03:30pm ESE 9 13 - - - - - - - 28.9 1009.5 0.2
25/03:00pm E 8 10 - - - - - - - 28.6 1009.5 0.2
25/02:30pm E 11 13 - - - - - - - 28.5 1009.6 0.2
25/02:00pm E 10 12 - - - - - - - 28.6 1009.9 0.2
25/01:30pm E 10 12 - - - - - - - 28.8 1010.1 0.2
25/01:00pm ESE 7 9 - - - - - - - 28.4 1010.6 0.2
25/12:30pm ESE 8 11 - - - - - - - 28.3 1011.2 0.2
25/12:00pm SE 7 11 - - - - - - - 28.3 1011.5 0.2
25/11:30am E 7 9 - - - - - - - 28.2 1011.8 0.2
25/11:00am ESE 6 8 - - - - - - - 27.6 1012.1 0.2
25/10:30am ESE 8 11 - - - - - - - 27.9 1012.5 0.2
25/10:00am E 9 11 - - - - - - - 28.0 1012.6 0.2
25/09:30am S 5 7 - - - - - - - 27.4 1012.6 0.0
25/09:00am SSW 5 7 - - - - - - - 26.9 1012.8 60.6
25/08:30am SSW 5 7 - - - - - - - 26.2 1012.6 60.6
25/08:00am SW 5 7 - - - - - - - 24.8 1012.6 60.6
25/07:30am SW 4 6 - - - - - - - 24.1 1012.3 60.6
25/07:00am SW 3 6 - - - - - - - 23.7 1012.2 60.6
25/06:30am SW 4 5 - - - - - - - 23.4 1011.9 60.6
25/06:00am SSW 5 6 - - - - - - - 23.4 1011.9 60.6
25/05:30am S 5 6 - - - - - - - 23.4 1011.6 60.6
25/05:00am S 4 6 - - - - - - - 23.5 1011.5 60.6
25/04:30am SSE 6 7 - - - - - - - 23.8 1011.5 60.6
25/04:00am SSE 6 9 - - - - - - - 23.9 1011.2 60.6
25/03:30am SSE 6 10 - - - - - - - 24.1 1011.3 60.6
25/03:00am SSE 7 11 - - - - - - - 24.1 1011.4 60.6
25/02:30am SSE 6 9 - - - - - - - 24.2 1011.5 60.6
25/02:00am SSE 7 11 - - - - - - - 24.3 1011.9 60.6
25/01:30am SSW 5 7 - - - - - - - 24.3 1012.3 60.6
25/01:00am SSW 5 8 - - - - - - - 24.2 1012.7 60.6
25/12:30am SSW 5 7 - - - - - - - 24.4 1013.2 60.6
25/12:00am WSW 5 9 - - - - - - Recent precip. 24.4 1013.3 60.6
 
Date/Time
EST
Wind Sea
Height
m
Swell Vis
km
Cloud Weather Temp
°C
Press
hPa
Rain since
9am
mm
Dir  Spd
kts
Gust
kts
Height
m
Period
s
Dir
24/11:30pm NNE 6 10 - - - - - - - 24.7 1013.7 60.4
24/11:00pm ENE 12 16 - - - - - - - 24.8 1013.7 60.4
24/10:55pm ENE 9 16 - - - - - - - 24.7 1013.8 60.4
24/10:30pm ENE 3 5 - - - - - - - 24.3 1013.7 60.4
24/10:00pm ENE 7 9 - - - - - - - 24.4 1013.7 54.4
24/09:30pm E 4 6 - - - - - - - 24.4 1013.7 25.4
24/09:00pm E 12 14 - - - - - - Rain 24.8 1013.5 10.6
24/08:30pm E 14 17 - - - - - - - 25.5 1013.1 8.6
24/08:00pm ESE 9 15 - - - - - - - 26.0 1013.0 8.2
24/07:30pm E 10 13 - - - - - - - 26.4 1012.6 7.8
24/07:00pm ENE 13 15 - - - - - - - 26.9 1012.3 7.8
24/06:30pm SE 6 9 - - - - - - - 26.1 1011.9 7.8
24/06:00pm SE 8 12 - - - - - - - 26.3 1011.8 7.8
24/05:30pm SSE 7 10 - - - - - - - 26.2 1011.5 7.8
24/05:00pm SE 9 12 - - - - - - - 26.5 1011.4 7.8
24/04:30pm SE 7 10 - - - - - - - 26.7 1011.3 7.8
24/04:00pm SE 8 11 - - - - - - - 26.5 1011.5 7.8
24/03:30pm SE 6 9 - - - - - - - 26.7 1011.4 7.8
24/03:00pm SE 6 8 - - - - - - Recent precip. 26.5 1011.5 7.8
24/02:30pm ESE 9 13 - - - - - - - 26.1 1011.7 7.8
24/02:00pm SE 8 11 - - - - - - - 27.5 1011.9 6.6
24/01:30pm SE 8 11 - - - - - - - 27.3 1012.3 6.6
24/01:00pm SE 9 14 - - - - - - - 27.1 1012.7 6.6
24/12:30pm ESE 6 8 - - - - - - - 27.0 1013.1 6.6
24/12:00pm ENE 8 11 - - - - - - Rain 25.8 1013.6 6.6
24/11:30am E 9 15 - - - - - - - 26.0 1014.0 3.2
24/11:00am SSE 8 13 - - - - - - - 26.6 1013.8 1.2
24/10:30am SSE 9 11 - - - - - - - 27.0 1014.2 0.8
24/10:00am SE 7 9 - - - - - - - 26.6 1014.5 0.8
24/09:30am SW 6 9 - - - - - - - 25.0 1014.3 0.6
24/09:00am SSE 4 7 - - - - - - Rain 24.8 1014.3 6.8
24/08:30am S 8 11 - - - - - - - 24.5 1014.1 5.8
24/08:00am S 4 8 - - - - - - - 24.4 1013.7 4.2
24/07:30am SSE 5 7 - - - - - - - 24.0 1013.7 3.6
24/07:00am S 9 13 - - - - - - - 24.0 1013.5 3.6
24/06:30am S 6 8 - - - - - - - 24.1 1013.6 3.6
24/06:00am S 5 9 - - - - - - - 23.9 1013.1 3.6
24/05:30am SE 7 9 - - - - - - - 24.5 1013.1 3.6
24/05:00am ESE 10 14 - - - - - - - 23.6 1012.6 3.6
24/04:49am ESE 15 21 - - - - - - - 23.9 1012.9 3.6
24/04:30am NW 4 6 - - - - - - - 24.3 1012.8 3.0
24/04:00am SSE 5 8 - - - - - - - 24.5 1012.8 3.0
24/03:30am S 10 14 - - - - - - - 24.7 1012.8 2.2
24/03:00am SSE 9 12 - - - - - - - 25.1 1012.8 2.2
24/02:30am SE 9 13 - - - - - - - 25.7 1013.1 2.2
24/02:00am ESE 13 18 - - - - - - - 26.4 1013.4 2.2
24/01:30am E 15 19 - - - - - - - 26.8 1013.9 2.0
24/01:00am E 19 24 - - - - - - - 27.0 1014.2 2.0
24/12:30am ENE 19 23 - - - - - - - 26.7 1014.5 2.0
24/12:00am E 17 22 - - - - - - Recent precip. 26.0 1014.9 1.8
 
Date/Time
EST
Wind Sea
Height
m
Swell Vis
km
Cloud Weather Temp
°C
Press
hPa
Rain since
9am
mm
Dir  Spd
kts
Gust
kts
Height
m
Period
s
Dir
23/11:46pm E 15 25 - - - - - - - 25.9 1015.0 1.8
23/11:30pm ESE 13 22 - - - - - - - 25.7 1015.2 1.4
23/11:00pm E 19 25 - - - - - - - 25.8 1015.2 1.2
23/10:30pm E 19 23 - - - - - - - 27.6 1015.3 0.4
23/10:00pm E 19 22 - - - - - - - 27.7 1015.3 0.4
23/09:30pm E 19 23 - - - - - - - 27.6 1015.3 0.4
23/09:00pm E 19 24 - - - - - - - 27.8 1014.9 0.4
23/08:30pm E 19 22 - - - - - - - 27.3 1014.8 0.4
23/08:00pm E 19 23 - - - - - - - 27.5 1014.3 0.4
23/07:30pm E 18 21 - - - - - - - 27.6 1014.1 0.4
23/07:00pm E 13 16 - - - - - - - 27.5 1014.0 0.4
23/06:30pm E 15 21 - - - - - - - 27.2 1013.8 0.4
23/06:00pm E 17 21 - - - - - - - 27.4 1013.3 0.4
23/05:30pm E 16 22 - - - - - - - 27.6 1012.9 0.4
23/05:00pm ESE 16 20 - - - - - - - 27.7 1012.8 0.4

Other formats

Comma delimited format used in spreadsheet applications
http://www.bom.gov.au/fwo/IDQ60701/IDQ60701.94373.axf

JavaScript Object Notation format (JSON) in row-major order
http://www.bom.gov.au/fwo/IDQ60701/IDQ60701.94373.json

Data quality

Most of these data are generated automatically and are frequently updated. Quality checks on data are not normally performed. It is possible for incorrect values to appear. Refer to information at About Latest Weather Observations and please check the disclaimer before using these data.